sensor_id;sensor_type;location;lat;lon;timestamp;P1;durP1;ratioP1;P2;durP2;ratioP2
66478;SDS011;53294;47.912;13.526;2022-07-23T00:00:14;7.88;;;5.22;;
66478;SDS011;53294;47.912;13.526;2022-07-23T00:02:42;6.40;;;4.93;;
66478;SDS011;53294;47.912;13.526;2022-07-23T00:05:09;6.70;;;5.10;;
66478;SDS011;53294;47.912;13.526;2022-07-23T00:07:36;6.82;;;4.80;;
66478;SDS011;53294;47.912;13.526;2022-07-23T00:10:03;6.65;;;5.38;;
66478;SDS011;53294;47.912;13.526;2022-07-23T00:12:30;6.60;;;5.18;;
66478;SDS011;53294;47.912;13.526;2022-07-23T00:14:57;6.13;;;4.63;;
66478;SDS011;53294;47.912;13.526;2022-07-23T00:17:24;6.22;;;4.60;;
66478;SDS011;53294;47.912;13.526;2022-07-23T00:19:51;6.97;;;5.30;;
66478;SDS011;53294;47.912;13.526;2022-07-23T00:22:19;5.93;;;4.93;;
66478;SDS011;53294;47.912;13.526;2022-07-23T00:24:46;8.98;;;5.00;;
66478;SDS011;53294;47.912;13.526;2022-07-23T00:27:33;5.43;;;4.22;;
66478;SDS011;53294;47.912;13.526;2022-07-23T00:30:00;7.20;;;5.07;;
66478;SDS011;53294;47.912;13.526;2022-07-23T00:32:27;7.45;;;5.28;;
66478;SDS011;53294;47.912;13.526;2022-07-23T00:35:13;6.20;;;3.70;;
66478;SDS011;53294;47.912;13.526;2022-07-23T00:37:40;4.88;;;3.88;;
66478;SDS011;53294;47.912;13.526;2022-07-23T00:40:07;5.45;;;4.18;;
66478;SDS011;53294;47.912;13.526;2022-07-23T00:42:34;4.35;;;3.40;;
66478;SDS011;53294;47.912;13.526;2022-07-23T00:45:01;4.80;;;2.90;;
66478;SDS011;53294;47.912;13.526;2022-07-23T00:47:28;3.72;;;2.72;;
66478;SDS011;53294;47.912;13.526;2022-07-23T00:49:55;4.70;;;2.90;;
66478;SDS011;53294;47.912;13.526;2022-07-23T00:52:21;4.50;;;2.85;;
66478;SDS011;53294;47.912;13.526;2022-07-23T00:54:48;3.95;;;2.45;;
66478;SDS011;53294;47.912;13.526;2022-07-23T00:57:16;4.82;;;2.58;;
66478;SDS011;53294;47.912;13.526;2022-07-23T00:59:43;3.88;;;2.67;;
66478;SDS011;53294;47.912;13.526;2022-07-23T01:02:10;4.85;;;2.85;;
66478;SDS011;53294;47.912;13.526;2022-07-23T01:04:36;4.03;;;2.45;;
66478;SDS011;53294;47.912;13.526;2022-07-23T01:07:03;4.72;;;2.72;;
66478;SDS011;53294;47.912;13.526;2022-07-23T01:09:30;4.50;;;2.70;;
66478;SDS011;53294;47.912;13.526;2022-07-23T01:11:58;4.25;;;2.83;;
66478;SDS011;53294;47.912;13.526;2022-07-23T01:14:25;5.20;;;2.65;;
66478;SDS011;53294;47.912;13.526;2022-07-23T01:16:52;4.97;;;2.95;;
66478;SDS011;53294;47.912;13.526;2022-07-23T01:19:20;4.45;;;2.90;;
66478;SDS011;53294;47.912;13.526;2022-07-23T01:21:47;4.32;;;2.88;;
66478;SDS011;53294;47.912;13.526;2022-07-23T01:24:16;4.13;;;3.00;;
66478;SDS011;53294;47.912;13.526;2022-07-23T01:26:46;4.95;;;2.97;;
66478;SDS011;53294;47.912;13.526;2022-07-23T01:29:14;5.10;;;3.30;;
66478;SDS011;53294;47.912;13.526;2022-07-23T01:31:41;4.32;;;2.88;;
66478;SDS011;53294;47.912;13.526;2022-07-23T01:34:09;5.45;;;3.00;;
66478;SDS011;53294;47.912;13.526;2022-07-23T01:36:36;5.10;;;3.25;;
66478;SDS011;53294;47.912;13.526;2022-07-23T01:39:04;4.22;;;2.80;;
66478;SDS011;53294;47.912;13.526;2022-07-23T01:41:32;3.92;;;2.85;;
66478;SDS011;53294;47.912;13.526;2022-07-23T01:44:00;4.50;;;3.28;;
66478;SDS011;53294;47.912;13.526;2022-07-23T01:46:27;5.35;;;3.10;;
66478;SDS011;53294;47.912;13.526;2022-07-23T01:48:54;5.65;;;3.45;;
66478;SDS011;53294;47.912;13.526;2022-07-23T01:51:21;3.90;;;2.70;;
66478;SDS011;53294;47.912;13.526;2022-07-23T01:53:48;4.25;;;3.05;;
66478;SDS011;53294;47.912;13.526;2022-07-23T01:56:14;4.32;;;3.03;;
66478;SDS011;53294;47.912;13.526;2022-07-23T01:58:41;4.22;;;3.00;;
66478;SDS011;53294;47.912;13.526;2022-07-23T02:01:08;5.57;;;3.08;;
66478;SDS011;53294;47.912;13.526;2022-07-23T02:03:35;4.20;;;3.00;;
66478;SDS011;53294;47.912;13.526;2022-07-23T02:06:02;4.55;;;2.92;;
66478;SDS011;53294;47.912;13.526;2022-07-23T02:08:28;4.70;;;3.00;;
66478;SDS011;53294;47.912;13.526;2022-07-23T02:10:55;6.15;;;3.10;;
66478;SDS011;53294;47.912;13.526;2022-07-23T02:13:22;4.60;;;3.08;;
66478;SDS011;53294;47.912;13.526;2022-07-23T02:15:48;3.90;;;2.80;;
66478;SDS011;53294;47.912;13.526;2022-07-23T02:18:15;4.90;;;3.33;;
66478;SDS011;53294;47.912;13.526;2022-07-23T02:20:42;4.30;;;2.75;;
66478;SDS011;53294;47.912;13.526;2022-07-23T02:23:10;4.50;;;3.13;;
66478;SDS011;53294;47.912;13.526;2022-07-23T02:25:37;4.63;;;3.00;;
66478;SDS011;53294;47.912;13.526;2022-07-23T02:28:04;4.03;;;2.83;;
66478;SDS011;53294;47.912;13.526;2022-07-23T02:30:31;4.75;;;2.90;;
66478;SDS011;53294;47.912;13.526;2022-07-23T02:32:57;4.72;;;3.28;;
66478;SDS011;53294;47.912;13.526;2022-07-23T02:35:24;5.55;;;3.30;;
66478;SDS011;53294;47.912;13.526;2022-07-23T02:37:51;5.50;;;3.80;;
66478;SDS011;53294;47.912;13.526;2022-07-23T02:40:17;5.30;;;3.97;;
66478;SDS011;53294;47.912;13.526;2022-07-23T02:42:44;5.20;;;3.70;;
66478;SDS011;53294;47.912;13.526;2022-07-23T02:45:12;5.47;;;3.70;;
66478;SDS011;53294;47.912;13.526;2022-07-23T02:47:39;4.93;;;3.65;;
66478;SDS011;53294;47.912;13.526;2022-07-23T02:50:06;4.95;;;3.85;;
66478;SDS011;53294;47.912;13.526;2022-07-23T02:52:33;5.57;;;4.03;;
66478;SDS011;53294;47.912;13.526;2022-07-23T02:55:00;7.85;;;4.75;;
66478;SDS011;53294;47.912;13.526;2022-07-23T02:57:26;6.65;;;4.38;;
66478;SDS011;53294;47.912;13.526;2022-07-23T02:59:53;6.63;;;4.60;;
66478;SDS011;53294;47.912;13.526;2022-07-23T03:02:20;7.00;;;4.30;;
66478;SDS011;53294;47.912;13.526;2022-07-23T03:04:46;8.00;;;4.47;;
66478;SDS011;53294;47.912;13.526;2022-07-23T03:07:13;6.40;;;4.50;;
66478;SDS011;53294;47.912;13.526;2022-07-23T03:09:40;6.68;;;4.90;;
66478;SDS011;53294;47.912;13.526;2022-07-23T03:12:06;6.65;;;4.85;;
66478;SDS011;53294;47.912;13.526;2022-07-23T03:14:39;5.68;;;4.38;;
66478;SDS011;53294;47.912;13.526;2022-07-23T03:17:06;7.30;;;5.20;;
66478;SDS011;53294;47.912;13.526;2022-07-23T03:19:33;7.07;;;4.63;;
66478;SDS011;53294;47.912;13.526;2022-07-23T03:21:59;6.20;;;4.53;;
66478;SDS011;53294;47.912;13.526;2022-07-23T03:24:26;6.43;;;4.18;;
66478;SDS011;53294;47.912;13.526;2022-07-23T03:27:13;6.20;;;4.55;;
66478;SDS011;53294;47.912;13.526;2022-07-23T03:29:39;5.97;;;3.88;;
66478;SDS011;53294;47.912;13.526;2022-07-23T03:32:06;5.68;;;3.67;;
66478;SDS011;53294;47.912;13.526;2022-07-23T03:34:33;5.90;;;4.03;;
66478;SDS011;53294;47.912;13.526;2022-07-23T03:36:59;5.65;;;3.95;;
66478;SDS011;53294;47.912;13.526;2022-07-23T03:39:28;6.57;;;3.90;;
66478;SDS011;53294;47.912;13.526;2022-07-23T03:41:54;5.90;;;4.32;;
66478;SDS011;53294;47.912;13.526;2022-07-23T03:44:21;6.68;;;4.82;;
66478;SDS011;53294;47.912;13.526;2022-07-23T03:46:48;7.13;;;4.82;;
66478;SDS011;53294;47.912;13.526;2022-07-23T03:49:15;6.22;;;4.45;;
66478;SDS011;53294;47.912;13.526;2022-07-23T03:51:42;6.82;;;4.85;;
66478;SDS011;53294;47.912;13.526;2022-07-23T03:54:09;7.93;;;5.05;;
66478;SDS011;53294;47.912;13.526;2022-07-23T03:56:36;7.00;;;5.40;;
66478;SDS011;53294;47.912;13.526;2022-07-23T03:59:02;9.65;;;5.63;;
66478;SDS011;53294;47.912;13.526;2022-07-23T04:01:30;9.90;;;5.90;;
66478;SDS011;53294;47.912;13.526;2022-07-23T04:03:57;6.93;;;5.22;;
66478;SDS011;53294;47.912;13.526;2022-07-23T04:06:24;7.15;;;5.85;;
66478;SDS011;53294;47.912;13.526;2022-07-23T04:08:51;8.25;;;5.53;;
66478;SDS011;53294;47.912;13.526;2022-07-23T04:11:18;7.68;;;5.25;;
66478;SDS011;53294;47.912;13.526;2022-07-23T04:13:44;7.38;;;5.63;;
66478;SDS011;53294;47.912;13.526;2022-07-23T04:16:11;7.13;;;5.60;;
66478;SDS011;53294;47.912;13.526;2022-07-23T04:18:38;8.13;;;5.97;;
66478;SDS011;53294;47.912;13.526;2022-07-23T04:21:05;9.32;;;5.45;;
66478;SDS011;53294;47.912;13.526;2022-07-23T04:23:32;10.35;;;5.93;;
66478;SDS011;53294;47.912;13.526;2022-07-23T04:25:58;7.85;;;5.65;;
66478;SDS011;53294;47.912;13.526;2022-07-23T04:28:25;8.27;;;5.97;;
66478;SDS011;53294;47.912;13.526;2022-07-23T04:30:52;6.93;;;5.05;;
66478;SDS011;53294;47.912;13.526;2022-07-23T04:33:18;7.05;;;5.30;;
66478;SDS011;53294;47.912;13.526;2022-07-23T04:35:46;9.10;;;5.40;;
66478;SDS011;53294;47.912;13.526;2022-07-23T04:38:12;8.02;;;4.90;;
66478;SDS011;53294;47.912;13.526;2022-07-23T04:40:39;6.43;;;4.85;;
66478;SDS011;53294;47.912;13.526;2022-07-23T04:43:06;6.05;;;5.03;;
66478;SDS011;53294;47.912;13.526;2022-07-23T04:45:32;8.02;;;5.45;;
66478;SDS011;53294;47.912;13.526;2022-07-23T04:47:59;7.43;;;5.07;;
66478;SDS011;53294;47.912;13.526;2022-07-23T04:50:26;6.63;;;4.85;;
66478;SDS011;53294;47.912;13.526;2022-07-23T04:52:53;8.13;;;5.40;;
66478;SDS011;53294;47.912;13.526;2022-07-23T04:55:19;8.85;;;5.90;;
66478;SDS011;53294;47.912;13.526;2022-07-23T04:57:46;7.50;;;5.18;;
66478;SDS011;53294;47.912;13.526;2022-07-23T05:00:13;6.78;;;5.25;;
66478;SDS011;53294;47.912;13.526;2022-07-23T05:02:40;9.45;;;5.63;;
66478;SDS011;53294;47.912;13.526;2022-07-23T05:05:07;7.60;;;5.25;;
66478;SDS011;53294;47.912;13.526;2022-07-23T05:07:33;7.35;;;5.40;;
66478;SDS011;53294;47.912;13.526;2022-07-23T05:10:00;7.75;;;5.28;;
66478;SDS011;53294;47.912;13.526;2022-07-23T05:12:27;8.10;;;5.47;;
66478;SDS011;53294;47.912;13.526;2022-07-23T05:14:53;7.93;;;5.60;;
66478;SDS011;53294;47.912;13.526;2022-07-23T05:17:20;6.72;;;5.18;;
66478;SDS011;53294;47.912;13.526;2022-07-23T05:19:47;7.25;;;5.13;;
66478;SDS011;53294;47.912;13.526;2022-07-23T05:22:13;10.02;;;5.22;;
66478;SDS011;53294;47.912;13.526;2022-07-23T05:24:40;8.43;;;5.10;;
66478;SDS011;53294;47.912;13.526;2022-07-23T05:27:07;6.28;;;4.95;;
66478;SDS011;53294;47.912;13.526;2022-07-23T05:29:34;6.70;;;5.10;;
66478;SDS011;53294;47.912;13.526;2022-07-23T05:32:01;5.78;;;4.82;;
66478;SDS011;53294;47.912;13.526;2022-07-23T05:34:27;6.93;;;4.88;;
66478;SDS011;53294;47.912;13.526;2022-07-23T05:36:54;8.00;;;5.22;;
66478;SDS011;53294;47.912;13.526;2022-07-23T05:39:21;6.38;;;4.75;;
66478;SDS011;53294;47.912;13.526;2022-07-23T05:41:48;8.57;;;5.13;;
66478;SDS011;53294;47.912;13.526;2022-07-23T05:44:14;7.07;;;5.05;;
66478;SDS011;53294;47.912;13.526;2022-07-23T05:46:41;6.38;;;4.45;;
66478;SDS011;53294;47.912;13.526;2022-07-23T05:49:08;7.63;;;4.40;;
66478;SDS011;53294;47.912;13.526;2022-07-23T05:51:35;9.38;;;5.13;;
66478;SDS011;53294;47.912;13.526;2022-07-23T05:54:02;7.50;;;4.75;;
66478;SDS011;53294;47.912;13.526;2022-07-23T05:56:28;5.88;;;4.20;;
66478;SDS011;53294;47.912;13.526;2022-07-23T05:58:55;5.90;;;4.20;;
66478;SDS011;53294;47.912;13.526;2022-07-23T06:01:21;6.13;;;4.10;;
66478;SDS011;53294;47.912;13.526;2022-07-23T06:03:49;8.10;;;4.63;;
66478;SDS011;53294;47.912;13.526;2022-07-23T06:06:15;5.43;;;4.20;;
66478;SDS011;53294;47.912;13.526;2022-07-23T06:08:42;6.63;;;4.18;;
66478;SDS011;53294;47.912;13.526;2022-07-23T06:11:09;6.78;;;4.28;;
66478;SDS011;53294;47.912;13.526;2022-07-23T06:13:35;6.32;;;4.30;;
66478;SDS011;53294;47.912;13.526;2022-07-23T06:16:02;5.65;;;4.03;;
66478;SDS011;53294;47.912;13.526;2022-07-23T06:18:29;5.82;;;3.92;;
66478;SDS011;53294;47.912;13.526;2022-07-23T06:20:55;7.45;;;4.93;;
66478;SDS011;53294;47.912;13.526;2022-07-23T06:23:26;7.47;;;4.22;;
66478;SDS011;53294;47.912;13.526;2022-07-23T06:25:52;6.43;;;4.35;;
66478;SDS011;53294;47.912;13.526;2022-07-23T06:28:19;6.20;;;4.38;;
66478;SDS011;53294;47.912;13.526;2022-07-23T06:30:46;6.50;;;4.53;;
66478;SDS011;53294;47.912;13.526;2022-07-23T06:33:12;6.55;;;4.55;;
66478;SDS011;53294;47.912;13.526;2022-07-23T06:35:39;5.15;;;3.97;;
66478;SDS011;53294;47.912;13.526;2022-07-23T06:38:06;5.90;;;4.25;;
66478;SDS011;53294;47.912;13.526;2022-07-23T06:40:33;4.97;;;3.78;;
66478;SDS011;53294;47.912;13.526;2022-07-23T06:43:00;6.88;;;4.28;;
66478;SDS011;53294;47.912;13.526;2022-07-23T06:45:26;6.13;;;4.13;;
66478;SDS011;53294;47.912;13.526;2022-07-23T06:47:53;7.30;;;4.70;;
66478;SDS011;53294;47.912;13.526;2022-07-23T06:50:20;5.93;;;4.30;;
66478;SDS011;53294;47.912;13.526;2022-07-23T06:52:47;5.80;;;4.35;;
66478;SDS011;53294;47.912;13.526;2022-07-23T06:55:13;5.88;;;3.72;;
66478;SDS011;53294;47.912;13.526;2022-07-23T06:57:41;7.40;;;4.88;;
66478;SDS011;53294;47.912;13.526;2022-07-23T07:00:07;6.38;;;3.80;;
66478;SDS011;53294;47.912;13.526;2022-07-23T07:02:35;6.45;;;3.70;;
66478;SDS011;53294;47.912;13.526;2022-07-23T07:05:02;4.65;;;3.67;;
66478;SDS011;53294;47.912;13.526;2022-07-23T07:07:32;5.43;;;3.72;;
66478;SDS011;53294;47.912;13.526;2022-07-23T07:09:59;6.07;;;4.07;;
66478;SDS011;53294;47.912;13.526;2022-07-23T07:12:26;5.38;;;4.03;;
66478;SDS011;53294;47.912;13.526;2022-07-23T07:14:53;4.72;;;3.25;;
66478;SDS011;53294;47.912;13.526;2022-07-23T07:17:20;4.65;;;3.15;;
66478;SDS011;53294;47.912;13.526;2022-07-23T07:19:47;5.15;;;3.53;;
66478;SDS011;53294;47.912;13.526;2022-07-23T07:22:13;5.22;;;3.42;;
66478;SDS011;53294;47.912;13.526;2022-07-23T07:24:40;5.35;;;3.55;;
66478;SDS011;53294;47.912;13.526;2022-07-23T07:27:07;5.88;;;3.28;;
66478;SDS011;53294;47.912;13.526;2022-07-23T07:29:33;5.28;;;3.85;;
66478;SDS011;53294;47.912;13.526;2022-07-23T07:32:00;5.28;;;3.45;;
66478;SDS011;53294;47.912;13.526;2022-07-23T07:34:27;4.88;;;3.75;;
66478;SDS011;53294;47.912;13.526;2022-07-23T07:36:53;6.68;;;4.22;;
66478;SDS011;53294;47.912;13.526;2022-07-23T07:39:20;5.88;;;3.95;;
66478;SDS011;53294;47.912;13.526;2022-07-23T07:41:47;5.68;;;3.53;;
66478;SDS011;53294;47.912;13.526;2022-07-23T07:44:13;5.57;;;3.80;;
66478;SDS011;53294;47.912;13.526;2022-07-23T07:46:40;5.20;;;3.60;;
66478;SDS011;53294;47.912;13.526;2022-07-23T07:49:07;4.65;;;3.25;;
66478;SDS011;53294;47.912;13.526;2022-07-23T07:51:41;5.38;;;3.60;;
66478;SDS011;53294;47.912;13.526;2022-07-23T07:54:10;5.68;;;3.67;;
66478;SDS011;53294;47.912;13.526;2022-07-23T07:56:37;5.60;;;3.67;;
66478;SDS011;53294;47.912;13.526;2022-07-23T07:59:05;4.80;;;3.63;;
66478;SDS011;53294;47.912;13.526;2022-07-23T08:01:33;4.40;;;3.30;;
66478;SDS011;53294;47.912;13.526;2022-07-23T08:03:59;5.32;;;3.65;;
66478;SDS011;53294;47.912;13.526;2022-07-23T08:06:27;6.45;;;3.45;;
66478;SDS011;53294;47.912;13.526;2022-07-23T08:08:53;5.75;;;3.47;;
66478;SDS011;53294;47.912;13.526;2022-07-23T08:11:20;5.55;;;3.65;;
66478;SDS011;53294;47.912;13.526;2022-07-23T08:13:47;4.95;;;3.35;;
66478;SDS011;53294;47.912;13.526;2022-07-23T08:16:14;5.63;;;3.63;;
66478;SDS011;53294;47.912;13.526;2022-07-23T08:18:41;5.13;;;3.25;;
66478;SDS011;53294;47.912;13.526;2022-07-23T08:21:07;5.13;;;3.85;;
66478;SDS011;53294;47.912;13.526;2022-07-23T08:23:34;4.53;;;3.20;;
66478;SDS011;53294;47.912;13.526;2022-07-23T08:26:01;6.68;;;3.60;;
66478;SDS011;53294;47.912;13.526;2022-07-23T08:28:28;5.55;;;3.58;;
66478;SDS011;53294;47.912;13.526;2022-07-23T08:30:55;6.10;;;3.78;;
66478;SDS011;53294;47.912;13.526;2022-07-23T08:33:22;5.00;;;3.70;;
66478;SDS011;53294;47.912;13.526;2022-07-23T08:36:00;6.03;;;3.53;;
66478;SDS011;53294;47.912;13.526;2022-07-23T08:38:30;5.13;;;3.53;;
66478;SDS011;53294;47.912;13.526;2022-07-23T08:40:57;6.80;;;3.90;;
66478;SDS011;53294;47.912;13.526;2022-07-23T08:43:26;5.55;;;3.88;;
66478;SDS011;53294;47.912;13.526;2022-07-23T08:45:55;6.15;;;4.00;;
66478;SDS011;53294;47.912;13.526;2022-07-23T08:48:26;5.57;;;3.88;;
66478;SDS011;53294;47.912;13.526;2022-07-23T08:50:56;6.53;;;4.05;;
66478;SDS011;53294;47.912;13.526;2022-07-23T08:53:27;5.85;;;4.15;;
66478;SDS011;53294;47.912;13.526;2022-07-23T08:55:56;5.50;;;3.80;;
66478;SDS011;53294;47.912;13.526;2022-07-23T08:58:24;6.18;;;4.03;;
66478;SDS011;53294;47.912;13.526;2022-07-23T09:00:53;5.15;;;3.75;;
66478;SDS011;53294;47.912;13.526;2022-07-23T09:03:23;6.97;;;3.88;;
66478;SDS011;53294;47.912;13.526;2022-07-23T09:05:52;4.53;;;3.40;;
66478;SDS011;53294;47.912;13.526;2022-07-23T09:08:22;7.10;;;4.63;;
66478;SDS011;53294;47.912;13.526;2022-07-23T09:13:29;6.18;;;4.13;;
66478;SDS011;53294;47.912;13.526;2022-07-23T09:16:05;7.68;;;4.60;;
66478;SDS011;53294;47.912;13.526;2022-07-23T09:18:35;6.80;;;4.25;;
66478;SDS011;53294;47.912;13.526;2022-07-23T09:21:12;5.50;;;4.15;;
66478;SDS011;53294;47.912;13.526;2022-07-23T09:23:43;7.63;;;4.60;;
66478;SDS011;53294;47.912;13.526;2022-07-23T09:26:20;6.78;;;4.10;;
66478;SDS011;53294;47.912;13.526;2022-07-23T09:29:02;6.20;;;4.40;;
66478;SDS011;53294;47.912;13.526;2022-07-23T09:31:48;5.10;;;4.03;;
66478;SDS011;53294;47.912;13.526;2022-07-23T09:34:18;6.57;;;4.10;;
66478;SDS011;53294;47.912;13.526;2022-07-23T09:36:50;5.43;;;4.35;;
66478;SDS011;53294;47.912;13.526;2022-07-23T09:39:31;6.32;;;4.50;;
66478;SDS011;53294;47.912;13.526;2022-07-23T09:44:46;5.60;;;4.53;;
66478;SDS011;53294;47.912;13.526;2022-07-23T09:47:15;5.32;;;4.28;;
66478;SDS011;53294;47.912;13.526;2022-07-23T09:49:58;7.10;;;3.97;;
66478;SDS011;53294;47.912;13.526;2022-07-23T09:52:26;7.15;;;4.25;;
66478;SDS011;53294;47.912;13.526;2022-07-23T09:55:02;5.97;;;4.22;;
66478;SDS011;53294;47.912;13.526;2022-07-23T09:57:31;5.13;;;4.00;;
66478;SDS011;53294;47.912;13.526;2022-07-23T10:00:00;6.22;;;4.00;;
66478;SDS011;53294;47.912;13.526;2022-07-23T10:02:29;6.05;;;4.28;;
66478;SDS011;53294;47.912;13.526;2022-07-23T10:05:00;6.13;;;4.25;;
66478;SDS011;53294;47.912;13.526;2022-07-23T10:07:28;6.13;;;3.72;;
66478;SDS011;53294;47.912;13.526;2022-07-23T10:09:59;7.15;;;4.78;;
66478;SDS011;53294;47.912;13.526;2022-07-23T10:12:27;5.15;;;4.00;;
66478;SDS011;53294;47.912;13.526;2022-07-23T10:14:59;6.75;;;4.35;;
66478;SDS011;53294;47.912;13.526;2022-07-23T10:17:29;6.68;;;4.22;;
66478;SDS011;53294;47.912;13.526;2022-07-23T10:19:56;5.28;;;3.97;;
66478;SDS011;53294;47.912;13.526;2022-07-23T10:22:24;5.45;;;4.20;;
66478;SDS011;53294;47.912;13.526;2022-07-23T10:27:47;5.85;;;4.38;;
66478;SDS011;53294;47.912;13.526;2022-07-23T10:30:36;6.72;;;4.40;;
66478;SDS011;53294;47.912;13.526;2022-07-23T10:33:32;5.70;;;4.32;;
66478;SDS011;53294;47.912;13.526;2022-07-23T10:36:22;5.35;;;4.05;;
66478;SDS011;53294;47.912;13.526;2022-07-23T10:39:04;6.15;;;4.30;;
66478;SDS011;53294;47.912;13.526;2022-07-23T10:41:38;6.38;;;4.07;;
66478;SDS011;53294;47.912;13.526;2022-07-23T10:44:09;6.55;;;4.07;;
66478;SDS011;53294;47.912;13.526;2022-07-23T10:46:53;5.65;;;4.10;;
66478;SDS011;53294;47.912;13.526;2022-07-23T10:49:43;5.30;;;4.10;;
66478;SDS011;53294;47.912;13.526;2022-07-23T10:57:07;5.82;;;4.00;;
66478;SDS011;53294;47.912;13.526;2022-07-23T11:02:36;5.18;;;3.78;;
66478;SDS011;53294;47.912;13.526;2022-07-23T11:05:05;5.82;;;4.32;;
66478;SDS011;53294;47.912;13.526;2022-07-23T11:07:34;7.28;;;4.50;;
66478;SDS011;53294;47.912;13.526;2022-07-23T11:10:03;5.00;;;3.92;;
66478;SDS011;53294;47.912;13.526;2022-07-23T11:17:23;4.70;;;3.50;;
66478;SDS011;53294;47.912;13.526;2022-07-23T11:22:36;6.28;;;3.88;;
66478;SDS011;53294;47.912;13.526;2022-07-23T11:27:49;5.47;;;3.42;;
66478;SDS011;53294;47.912;13.526;2022-07-23T11:30:50;4.88;;;3.45;;
66478;SDS011;53294;47.912;13.526;2022-07-23T11:35:41;5.45;;;3.55;;
66478;SDS011;53294;47.912;13.526;2022-07-23T11:38:13;4.25;;;3.50;;
66478;SDS011;53294;47.912;13.526;2022-07-23T11:40:46;5.18;;;3.40;;
66478;SDS011;53294;47.912;13.526;2022-07-23T11:43:25;5.70;;;3.33;;
66478;SDS011;53294;47.912;13.526;2022-07-23T11:45:53;5.60;;;4.07;;
66478;SDS011;53294;47.912;13.526;2022-07-23T11:48:23;4.00;;;3.13;;
66478;SDS011;53294;47.912;13.526;2022-07-23T11:50:55;4.88;;;3.72;;
66478;SDS011;53294;47.912;13.526;2022-07-23T11:56:07;5.10;;;3.30;;
66478;SDS011;53294;47.912;13.526;2022-07-23T11:58:36;4.85;;;3.40;;
66478;SDS011;53294;47.912;13.526;2022-07-23T12:01:04;4.50;;;3.35;;
66478;SDS011;53294;47.912;13.526;2022-07-23T12:03:31;5.15;;;3.50;;
66478;SDS011;53294;47.912;13.526;2022-07-23T12:05:58;4.55;;;3.13;;
66478;SDS011;53294;47.912;13.526;2022-07-23T12:08:26;4.85;;;3.00;;
66478;SDS011;53294;47.912;13.526;2022-07-23T12:10:52;4.75;;;3.53;;
66478;SDS011;53294;47.912;13.526;2022-07-23T12:13:20;5.15;;;3.40;;
66478;SDS011;53294;47.912;13.526;2022-07-23T12:15:49;6.05;;;3.55;;
66478;SDS011;53294;47.912;13.526;2022-07-23T12:18:21;5.53;;;3.30;;
66478;SDS011;53294;47.912;13.526;2022-07-23T12:20:51;4.68;;;3.35;;
66478;SDS011;53294;47.912;13.526;2022-07-23T12:23:20;5.03;;;3.50;;
66478;SDS011;53294;47.912;13.526;2022-07-23T12:25:49;4.65;;;3.20;;
66478;SDS011;53294;47.912;13.526;2022-07-23T12:28:18;4.45;;;3.45;;
66478;SDS011;53294;47.912;13.526;2022-07-23T12:30:47;5.45;;;3.70;;
66478;SDS011;53294;47.912;13.526;2022-07-23T12:33:25;5.30;;;3.75;;
66478;SDS011;53294;47.912;13.526;2022-07-23T12:35:54;5.90;;;3.45;;
66478;SDS011;53294;47.912;13.526;2022-07-23T12:38:23;5.50;;;3.92;;
66478;SDS011;53294;47.912;13.526;2022-07-23T12:40:56;5.90;;;3.72;;
66478;SDS011;53294;47.912;13.526;2022-07-23T12:43:27;5.13;;;3.42;;
66478;SDS011;53294;47.912;13.526;2022-07-23T12:48:36;5.05;;;3.88;;
66478;SDS011;53294;47.912;13.526;2022-07-23T12:51:06;5.18;;;4.03;;
66478;SDS011;53294;47.912;13.526;2022-07-23T12:56:07;5.60;;;4.03;;
66478;SDS011;53294;47.912;13.526;2022-07-23T13:06:44;5.90;;;4.05;;
66478;SDS011;53294;47.912;13.526;2022-07-23T13:09:12;5.57;;;3.63;;
66478;SDS011;53294;47.912;13.526;2022-07-23T13:11:45;5.22;;;3.58;;
66478;SDS011;53294;47.912;13.526;2022-07-23T13:14:13;7.65;;;4.30;;
66478;SDS011;53294;47.912;13.526;2022-07-23T13:16:40;6.15;;;3.90;;
66478;SDS011;53294;47.912;13.526;2022-07-23T13:19:08;4.97;;;3.85;;
66478;SDS011;53294;47.912;13.526;2022-07-23T13:21:55;4.80;;;3.70;;
66478;SDS011;53294;47.912;13.526;2022-07-23T13:24:22;5.57;;;3.60;;
66478;SDS011;53294;47.912;13.526;2022-07-23T13:26:49;5.70;;;3.15;;
66478;SDS011;53294;47.912;13.526;2022-07-23T13:29:18;5.28;;;3.63;;
66478;SDS011;53294;47.912;13.526;2022-07-23T13:31:45;4.22;;;3.28;;
66478;SDS011;53294;47.912;13.526;2022-07-23T13:34:14;5.60;;;3.38;;
66478;SDS011;53294;47.912;13.526;2022-07-23T13:36:41;5.00;;;3.50;;
66478;SDS011;53294;47.912;13.526;2022-07-23T13:39:10;6.57;;;4.03;;
66478;SDS011;53294;47.912;13.526;2022-07-23T13:41:37;4.72;;;3.53;;
66478;SDS011;53294;47.912;13.526;2022-07-23T13:44:05;5.63;;;3.45;;
66478;SDS011;53294;47.912;13.526;2022-07-23T13:46:33;5.38;;;3.60;;
66478;SDS011;53294;47.912;13.526;2022-07-23T13:49:01;4.90;;;3.67;;
66478;SDS011;53294;47.912;13.526;2022-07-23T13:51:31;5.22;;;3.53;;
66478;SDS011;53294;47.912;13.526;2022-07-23T13:53:58;4.85;;;3.60;;
66478;SDS011;53294;47.912;13.526;2022-07-23T13:56:25;5.90;;;3.78;;
66478;SDS011;53294;47.912;13.526;2022-07-23T13:58:52;5.45;;;3.47;;
66478;SDS011;53294;47.912;13.526;2022-07-23T14:01:19;5.18;;;3.90;;
66478;SDS011;53294;47.912;13.526;2022-07-23T14:03:46;5.18;;;3.60;;
66478;SDS011;53294;47.912;13.526;2022-07-23T14:06:13;4.47;;;3.60;;
66478;SDS011;53294;47.912;13.526;2022-07-23T14:08:42;4.72;;;3.45;;
66478;SDS011;53294;47.912;13.526;2022-07-23T14:11:10;4.25;;;3.13;;
66478;SDS011;53294;47.912;13.526;2022-07-23T14:13:38;4.90;;;3.50;;
66478;SDS011;53294;47.912;13.526;2022-07-23T14:16:06;4.72;;;3.63;;
66478;SDS011;53294;47.912;13.526;2022-07-23T14:18:33;7.10;;;3.75;;
66478;SDS011;53294;47.912;13.526;2022-07-23T14:21:01;4.75;;;3.40;;
66478;SDS011;53294;47.912;13.526;2022-07-23T14:23:28;5.20;;;3.72;;
66478;SDS011;53294;47.912;13.526;2022-07-23T14:25:56;5.72;;;3.90;;
66478;SDS011;53294;47.912;13.526;2022-07-23T14:28:23;5.57;;;3.83;;
66478;SDS011;53294;47.912;13.526;2022-07-23T14:30:50;4.78;;;3.60;;
66478;SDS011;53294;47.912;13.526;2022-07-23T14:33:17;5.47;;;3.40;;
66478;SDS011;53294;47.912;13.526;2022-07-23T14:35:44;5.03;;;3.85;;
66478;SDS011;53294;47.912;13.526;2022-07-23T14:38:11;5.68;;;3.40;;
66478;SDS011;53294;47.912;13.526;2022-07-23T14:40:39;6.40;;;3.70;;
66478;SDS011;53294;47.912;13.526;2022-07-23T14:43:07;6.55;;;3.53;;
66478;SDS011;53294;47.912;13.526;2022-07-23T14:45:37;5.55;;;3.80;;
66478;SDS011;53294;47.912;13.526;2022-07-23T14:48:04;5.82;;;3.95;;
66478;SDS011;53294;47.912;13.526;2022-07-23T14:50:31;5.97;;;3.95;;
66478;SDS011;53294;47.912;13.526;2022-07-23T14:52:58;5.97;;;4.00;;
66478;SDS011;53294;47.912;13.526;2022-07-23T14:55:25;7.18;;;3.92;;
66478;SDS011;53294;47.912;13.526;2022-07-23T14:57:52;5.43;;;3.83;;
66478;SDS011;53294;47.912;13.526;2022-07-23T15:00:19;5.10;;;3.90;;
66478;SDS011;53294;47.912;13.526;2022-07-23T15:02:49;5.60;;;4.07;;
66478;SDS011;53294;47.912;13.526;2022-07-23T15:05:20;5.47;;;3.75;;
66478;SDS011;53294;47.912;13.526;2022-07-23T15:07:47;5.72;;;4.25;;
66478;SDS011;53294;47.912;13.526;2022-07-23T15:10:14;5.53;;;4.07;;
66478;SDS011;53294;47.912;13.526;2022-07-23T15:12:45;6.43;;;4.22;;
66478;SDS011;53294;47.912;13.526;2022-07-23T15:15:12;5.93;;;3.95;;
66478;SDS011;53294;47.912;13.526;2022-07-23T15:17:39;6.13;;;4.13;;
66478;SDS011;53294;47.912;13.526;2022-07-23T15:20:06;6.20;;;3.90;;
66478;SDS011;53294;47.912;13.526;2022-07-23T15:22:34;5.43;;;4.30;;
66478;SDS011;53294;47.912;13.526;2022-07-23T15:25:01;5.60;;;4.03;;